Time;durP1;ratioP1;P1;durP2;ratioP2;P2;SDS_P1;SDS_P2;PMS_P1;PMS_P2;Temp;Humidity;BMP_temperature;BMP_pressure;BME280_temperature;BME280_humidity;BME280_pressure;Samples;Min_cycle;Max_cycle;Signal;HPM_P1;HPM_P2
2022/01/01 00:00:14;;;;;;;44.22;29.05;;;4.60;87.70;;;;;;5085363;28;20027;-55
2022/01/01 00:02:41;;;;;;;33.10;22.75;;;4.60;87.80;;;;;;5095186;28;20024;-59
2022/01/01 00:05:08;;;;;;;33.10;22.77;;;4.60;88.00;;;;;;5086388;28;20059;-58
2022/01/01 00:07:35;;;;;;;37.20;24.83;;;4.60;87.90;;;;;;5074919;28;20021;-58
2022/01/01 00:10:01;;;;;;;35.78;24.00;;;4.60;88.20;;;;;;5075811;28;20103;-58
2022/01/01 00:12:27;;;;;;;34.85;23.35;;;4.60;88.40;;;;;;5074796;28;20082;-58
2022/01/01 00:14:52;;;;;;;34.00;21.48;;;4.60;88.50;;;;;;5074439;28;20025;-59
2022/01/01 00:17:18;;;;;;;34.42;22.08;;;4.60;88.40;;;;;;5077663;28;20036;-58
2022/01/01 00:19:44;;;;;;;29.15;19.98;;;4.60;88.40;;;;;;5094760;28;20074;-57
2022/01/01 00:22:09;;;;;;;33.72;21.13;;;4.60;88.30;;;;;;5094901;28;20023;-58
2022/01/01 00:24:35;;;;;;;26.30;17.75;;;4.60;88.30;;;;;;5094465;28;20044;-57
2022/01/01 00:27:01;;;;;;;34.47;22.02;;;4.60;88.30;;;;;;5094454;28;20021;-58
2022/01/01 00:29:28;;;;;;;26.30;16.48;;;4.60;88.60;;;;;;5086047;28;20484;-59
2022/01/01 00:31:53;;;;;;;27.88;19.63;;;4.60;88.50;;;;;;5074358;28;20528;-58
2022/01/01 00:34:19;;;;;;;33.63;20.20;;;4.70;88.80;;;;;;5079141;28;20112;-57
2022/01/01 00:36:45;;;;;;;30.63;20.27;;;4.70;89.00;;;;;;5083175;28;20035;-59
2022/01/01 00:39:10;;;;;;;27.42;18.30;;;4.70;89.20;;;;;;5094239;28;20028;-58
2022/01/01 00:41:36;;;;;;;30.17;19.23;;;4.70;89.30;;;;;;5094324;28;20461;-54
2022/01/01 00:44:02;;;;;;;27.00;18.40;;;4.70;89.30;;;;;;5078548;28;20046;-59
2022/01/01 00:46:28;;;;;;;27.35;18.73;;;4.70;89.40;;;;;;5074224;28;20071;-56
2022/01/01 00:48:53;;;;;;;27.67;18.40;;;4.70;89.40;;;;;;5077416;28;20067;-57
2022/01/01 00:51:23;;;;;;;25.35;17.02;;;4.70;89.40;;;;;;5089339;28;20161;-58
2022/01/01 00:53:50;;;;;;;27.65;19.08;;;4.70;89.10;;;;;;5094053;28;20023;-55
2022/01/01 00:56:16;;;;;;;25.65;17.08;;;4.80;89.40;;;;;;5093911;28;20062;-59
2022/01/01 00:58:42;;;;;;;24.40;16.85;;;4.80;89.50;;;;;;5092592;28;20388;-58
2022/01/01 01:01:07;;;;;;;23.38;15.38;;;4.80;89.50;;;;;;5077709;28;20020;-59
2022/01/01 01:03:33;;;;;;;22.80;16.13;;;4.80;89.40;;;;;;5073940;28;20027;-58
2022/01/01 01:05:59;;;;;;;22.15;15.38;;;4.80;89.20;;;;;;5076787;28;20403;-56
2022/01/01 01:08:26;;;;;;;22.95;15.57;;;4.90;89.30;;;;;;5077077;28;20038;-55
2022/01/01 01:10:53;;;;;;;21.23;15.90;;;4.90;89.20;;;;;;5073950;28;20025;-56
2022/01/01 01:13:20;;;;;;;23.20;17.02;;;4.90;89.20;;;;;;5076238;28;20033;-56
2022/01/01 01:15:46;;;;;;;20.27;14.82;;;4.90;89.30;;;;;;5083510;28;20669;-59
2022/01/01 01:18:12;;;;;;;23.50;16.45;;;4.90;89.40;;;;;;5071371;28;20096;-59
2022/01/01 01:20:38;;;;;;;22.73;15.43;;;5.00;89.50;;;;;;5074194;28;20046;-58
2022/01/01 01:23:04;;;;;;;19.75;12.70;;;5.00;89.40;;;;;;5079751;28;20423;-57
2022/01/01 01:25:32;;;;;;;21.02;14.23;;;5.00;89.20;;;;;;5088981;28;20020;-59
2022/01/01 01:28:06;;;;;;;18.50;13.32;;;5.00;89.00;;;;;;5091712;28;20031;-59
2022/01/01 01:30:32;;;;;;;19.10;14.02;;;5.00;88.90;;;;;;5082018;28;20039;-58
2022/01/01 01:32:59;;;;;;;21.08;14.48;;;5.00;89.00;;;;;;5073349;28;20056;-58
2022/01/01 01:35:25;;;;;;;19.70;13.85;;;5.00;89.10;;;;;;5072858;28;20040;-57
2022/01/01 01:37:51;;;;;;;18.70;14.15;;;5.00;89.00;;;;;;5073159;28;20112;-59
2022/01/01 01:40:16;;;;;;;21.23;14.85;;;5.00;88.90;;;;;;5073021;28;20025;-57
2022/01/01 01:42:44;;;;;;;19.58;13.95;;;5.00;88.80;;;;;;5080362;28;20020;-58
2022/01/01 01:45:15;;;;;;;18.23;13.93;;;5.00;89.00;;;;;;5093374;28;20415;-57
2022/01/01 01:47:41;;;;;;;16.92;11.73;;;5.00;89.40;;;;;;5091885;28;20089;-58
2022/01/01 01:50:10;;;;;;;18.30;12.20;;;5.00;89.40;;;;;;5072916;28;20064;-56
2022/01/01 01:52:37;;;;;;;16.02;12.93;;;5.00;89.20;;;;;;5072974;28;20031;-55
2022/01/01 01:55:09;;;;;;;15.13;11.45;;;5.10;89.30;;;;;;5079452;28;20073;-58
2022/01/01 01:57:36;;;;;;;15.23;10.82;;;5.10;89.20;;;;;;5091735;28;20031;-58
2022/01/01 02:00:09;;;;;;;14.23;11.30;;;5.10;89.20;;;;;;5093265;28;20484;-58
2022/01/01 02:02:35;;;;;;;16.10;11.95;;;5.10;89.40;;;;;;5091204;28;20016;-57
2022/01/01 02:05:00;;;;;;;16.58;12.73;;;5.10;89.50;;;;;;5082082;28;20051;-59
2022/01/01 02:07:27;;;;;;;16.05;12.38;;;5.10;89.40;;;;;;5076523;28;20420;-59
2022/01/01 02:09:52;;;;;;;14.57;11.80;;;5.10;89.60;;;;;;5073880;28;20372;-58
2022/01/01 02:12:21;;;;;;;13.60;10.73;;;5.10;89.70;;;;;;5083882;28;20035;-57
2022/01/01 02:17:25;;;;;;;14.85;10.95;;;5.10;89.70;;;;;;5089456;28;20123;-59
2022/01/01 02:20:00;;;;;;;13.00;10.27;;;5.10;89.70;;;;;;5081999;28;20041;-59
2022/01/01 02:22:34;;;;;;;14.27;11.20;;;5.10;89.80;;;;;;5072922;28;20461;-58
2022/01/01 02:25:00;;;;;;;14.90;11.00;;;5.10;89.80;;;;;;5072830;28;20047;-59
2022/01/01 02:27:25;;;;;;;15.27;11.30;;;5.10;89.80;;;;;;5088039;28;20376;-57
2022/01/01 02:29:51;;;;;;;14.27;10.77;;;5.10;89.90;;;;;;5082130;28;20056;-59
2022/01/01 02:32:16;;;;;;;13.02;9.95;;;5.20;90.00;;;;;;5087292;28;20470;-57
2022/01/01 02:34:43;;;;;;;12.13;9.73;;;5.20;89.90;;;;;;5089635;28;20103;-57
2022/01/01 02:37:09;;;;;;;11.48;9.20;;;5.20;90.00;;;;;;5085487;28;20074;-57
2022/01/01 02:39:35;;;;;;;11.02;8.93;;;5.20;90.10;;;;;;5076393;28;20021;-55
2022/01/01 02:42:01;;;;;;;11.63;8.63;;;5.20;90.20;;;;;;5076546;28;20021;-59
2022/01/01 02:44:28;;;;;;;11.73;8.95;;;5.10;90.20;;;;;;5076238;28;20481;-58
2022/01/01 02:46:57;;;;;;;13.60;9.25;;;5.10;90.30;;;;;;5076162;28;20104;-57
2022/01/01 02:49:24;;;;;;;8.57;7.25;;;5.10;90.40;;;;;;5082688;28;20024;-58
2022/01/01 02:51:49;;;;;;;10.13;8.68;;;5.10;90.50;;;;;;5095739;28;20028;-59
2022/01/01 02:54:15;;;;;;;9.30;7.75;;;5.10;90.60;;;;;;5077788;28;20040;-57
2022/01/01 02:56:41;;;;;;;9.95;7.47;;;5.10;90.70;;;;;;5075933;28;20028;-58
2022/01/01 02:59:06;;;;;;;11.15;8.00;;;5.10;90.70;;;;;;5075917;28;20078;-59
2022/01/01 03:01:32;;;;;;;10.30;7.38;;;5.10;90.80;;;;;;5075939;28;20021;-59
2022/01/01 03:03:58;;;;;;;10.43;7.90;;;5.10;90.90;;;;;;5078557;28;20481;-59
2022/01/01 03:06:23;;;;;;;9.73;7.63;;;5.10;91.00;;;;;;5083861;28;20028;-59
2022/01/01 03:08:55;;;;;;;9.60;7.30;;;5.10;91.10;;;;;;5080507;28;20025;-58
2022/01/01 03:11:21;;;;;;;9.10;7.28;;;5.10;91.10;;;;;;5083391;28;20025;-55
2022/01/01 03:13:47;;;;;;;9.65;7.35;;;5.10;91.20;;;;;;5075688;28;20437;-58
2022/01/01 03:16:13;;;;;;;8.82;7.93;;;5.10;91.20;;;;;;5076876;28;20028;-56
2022/01/01 03:18:39;;;;;;;9.50;7.50;;;5.10;91.30;;;;;;5075546;28;20036;-59
2022/01/01 03:21:06;;;;;;;8.05;6.60;;;5.20;91.70;;;;;;5075639;28;20031;-58
2022/01/01 03:23:31;;;;;;;7.32;6.53;;;5.20;91.30;;;;;;5080608;28;20109;-58
2022/01/01 03:25:57;;;;;;;9.88;7.57;;;5.20;91.40;;;;;;5094707;28;20016;-58
2022/01/01 03:28:23;;;;;;;7.30;6.03;;;5.20;91.50;;;;;;5082185;28;20024;-58
2022/01/01 03:30:48;;;;;;;8.10;6.03;;;5.20;91.50;;;;;;5082001;28;20028;-59
2022/01/01 03:33:14;;;;;;;8.35;7.00;;;5.20;91.60;;;;;;5086907;28;20060;-59
2022/01/01 03:35:40;;;;;;;9.80;7.40;;;5.30;91.70;;;;;;5078655;28;20568;-59
2022/01/01 03:38:05;;;;;;;8.30;5.93;;;5.30;91.70;;;;;;5075670;28;20107;-57
2022/01/01 03:40:31;;;;;;;6.88;6.05;;;5.30;91.80;;;;;;5077342;28;21104;-59
2022/01/01 03:42:57;;;;;;;7.55;6.38;;;5.30;91.80;;;;;;5085967;28;20025;-59
2022/01/01 03:45:22;;;;;;;9.02;6.28;;;5.40;91.90;;;;;;5076933;28;20484;-59
2022/01/01 03:47:48;;;;;;;7.68;6.38;;;5.40;92.00;;;;;;5087337;28;20388;-58
2022/01/01 03:50:14;;;;;;;8.18;6.38;;;5.40;92.00;;;;;;5075018;28;20430;-56
2022/01/01 03:52:44;;;;;;;9.75;6.68;;;5.40;92.00;;;;;;5075083;28;20495;-59
2022/01/01 03:55:11;;;;;;;6.57;5.63;;;5.40;92.20;;;;;;5075221;28;20059;-60
2022/01/01 03:57:37;;;;;;;6.72;5.78;;;5.50;92.20;;;;;;5083126;28;20071;-58
2022/01/01 04:00:06;;;;;;;8.05;6.45;;;5.50;92.30;;;;;;5088215;28;20512;-60
2022/01/01 04:02:32;;;;;;;6.75;5.90;;;5.60;92.30;;;;;;5077630;28;20078;-60
2022/01/01 04:04:58;;;;;;;5.93;5.13;;;5.60;92.40;;;;;;5076380;28;20108;-60
2022/01/01 04:07:24;;;;;;;7.82;6.10;;;5.60;92.40;;;;;;5074621;28;20500;-57
2022/01/01 04:09:49;;;;;;;5.70;5.15;;;5.70;92.50;;;;;;5074698;28;20077;-59
2022/01/01 04:12:15;;;;;;;6.38;5.65;;;5.70;92.50;;;;;;5074604;28;20154;-57
2022/01/01 04:14:42;;;;;;;7.07;5.70;;;5.80;92.60;;;;;;5078814;28;20039;-58
2022/01/01 04:17:09;;;;;;;6.43;5.25;;;5.80;92.50;;;;;;5094960;28;20031;-58
2022/01/01 04:19:41;;;;;;;6.80;5.35;;;5.80;92.50;;;;;;5094917;28;20032;-59
2022/01/01 04:22:11;;;;;;;5.88;4.97;;;5.80;92.70;;;;;;5080002;28;20178;-59
2022/01/01 04:24:38;;;;;;;7.50;5.80;;;5.80;92.70;;;;;;5093653;28;20044;-58
2022/01/01 04:27:05;;;;;;;5.65;5.00;;;5.90;92.80;;;;;;5094864;28;20024;-58
2022/01/01 04:29:31;;;;;;;6.80;5.88;;;5.90;92.80;;;;;;5080924;28;20024;-59
2022/01/01 04:31:59;;;;;;;6.35;5.63;;;5.90;92.80;;;;;;5088625;28;20024;-58
2022/01/01 04:34:25;;;;;;;8.90;6.82;;;6.00;92.90;;;;;;5090496;28;20031;-57
2022/01/01 04:37:13;;;;;;;6.95;5.72;;;6.00;92.90;;;;;;5083324;28;20081;-57
2022/01/01 04:39:37;;;;;;;7.07;5.75;;;6.00;92.90;;;;;;5092736;28;20089;-59
2022/01/01 04:42:03;;;;;;;8.95;6.95;;;6.10;92.90;;;;;;5094598;28;20024;-59
2022/01/01 04:44:29;;;;;;;8.48;6.85;;;6.10;93.00;;;;;;5094286;28;20073;-59
2022/01/01 04:46:55;;;;;;;7.97;6.20;;;6.10;93.00;;;;;;5094197;28;20028;-57
2022/01/01 04:49:22;;;;;;;8.27;6.90;;;6.10;93.00;;;;;;5087516;28;20031;-57
2022/01/01 04:51:48;;;;;;;8.32;6.47;;;6.10;93.00;;;;;;5094291;28;20047;-57
2022/01/01 04:54:17;;;;;;;8.27;6.78;;;6.20;93.10;;;;;;5093758;28;20024;-58
2022/01/01 04:56:48;;;;;;;8.90;6.63;;;6.20;93.10;;;;;;5093857;28;20043;-57
2022/01/01 04:59:15;;;;;;;7.63;6.53;;;6.30;93.20;;;;;;5094325;28;20024;-59
2022/01/01 05:01:41;;;;;;;6.78;5.80;;;6.30;93.20;;;;;;5090946;28;20530;-59
2022/01/01 05:04:07;;;;;;;9.23;7.32;;;6.30;93.10;;;;;;5081387;28;20556;-58
2022/01/01 05:06:33;;;;;;;8.27;6.20;;;6.30;93.20;;;;;;5089756;28;20104;-59
2022/01/01 05:08:59;;;;;;;8.63;6.38;;;6.40;93.20;;;;;;5073784;28;20029;-59
2022/01/01 05:11:25;;;;;;;9.75;7.13;;;6.40;93.10;;;;;;5073559;28;20116;-59
2022/01/01 05:13:51;;;;;;;6.97;5.78;;;6.50;93.20;;;;;;5073429;28;20167;-57
2022/01/01 05:16:18;;;;;;;9.23;7.18;;;6.50;93.20;;;;;;5073460;28;20123;-59
2022/01/01 05:18:45;;;;;;;9.40;6.57;;;6.50;93.30;;;;;;5073502;28;20092;-59
2022/01/01 05:21:11;;;;;;;10.18;6.82;;;6.60;93.40;;;;;;5073351;28;20366;-59
2022/01/01 05:23:37;;;;;;;7.60;6.03;;;6.60;93.30;;;;;;5080898;28;20051;-59
2022/01/01 05:26:03;;;;;;;8.30;6.60;;;6.60;93.20;;;;;;5081166;28;20039;-57
2022/01/01 05:28:30;;;;;;;9.25;7.03;;;6.70;93.30;;;;;;5076482;28;20092;-56
2022/01/01 05:30:55;;;;;;;10.15;8.15;;;6.70;93.30;;;;;;5073315;28;20016;-58
2022/01/01 05:33:21;;;;;;;11.23;7.85;;;6.70;93.30;;;;;;5085392;28;20060;-57
2022/01/01 05:35:47;;;;;;;9.23;6.55;;;6.70;93.30;;;;;;5087280;28;20024;-57
2022/01/01 05:38:12;;;;;;;9.73;7.40;;;6.80;93.30;;;;;;5086596;28;20024;-57
2022/01/01 05:40:38;;;;;;;10.75;7.90;;;6.80;93.40;;;;;;5083823;28;20060;-59
2022/01/01 05:43:04;;;;;;;11.80;8.38;;;6.80;93.40;;;;;;5072973;28;20527;-59
2022/01/01 05:45:29;;;;;;;12.75;8.57;;;6.90;93.40;;;;;;5072964;28;20528;-58
2022/01/01 05:47:55;;;;;;;13.05;8.82;;;6.90;93.40;;;;;;5073327;28;20491;-60
2022/01/01 05:50:20;;;;;;;14.60;10.15;;;6.90;93.40;;;;;;5072900;28;20035;-59
2022/01/01 05:52:47;;;;;;;11.38;8.27;;;7.00;93.50;;;;;;5072956;28;20095;-59
2022/01/01 05:55:13;;;;;;;14.73;10.40;;;7.00;93.40;;;;;;5072821;28;20095;-57
2022/01/01 05:57:39;;;;;;;12.55;9.90;;;7.00;93.50;;;;;;5083525;28;20040;-58
2022/01/01 06:00:08;;;;;;;13.15;9.75;;;7.00;93.60;;;;;;5075170;28;20048;-58
2022/01/01 06:02:40;;;;;;;14.30;10.65;;;7.00;93.50;;;;;;5072803;28;20065;-57
2022/01/01 06:05:06;;;;;;;12.57;9.18;;;7.10;93.50;;;;;;5074663;28;20346;-59
2022/01/01 06:07:32;;;;;;;11.48;9.82;;;7.10;93.50;;;;;;5072601;28;20464;-59
2022/01/01 06:09:59;;;;;;;13.63;9.95;;;7.10;93.60;;;;;;5072723;28;20037;-58
2022/01/01 06:12:25;;;;;;;12.88;9.50;;;7.10;93.60;;;;;;5072885;28;20040;-57
2022/01/01 06:14:51;;;;;;;13.65;10.77;;;7.20;93.60;;;;;;5085778;28;20103;-58
2022/01/01 06:17:16;;;;;;;13.82;10.23;;;7.20;93.60;;;;;;5072674;28;20503;-59
2022/01/01 06:19:42;;;;;;;14.13;10.40;;;7.20;93.70;;;;;;5072607;28;20153;-57
2022/01/01 06:22:08;;;;;;;11.98;8.55;;;7.30;93.80;;;;;;5072887;28;20104;-58
2022/01/01 06:24:33;;;;;;;14.52;10.88;;;7.30;93.70;;;;;;5072479;28;20052;-58
2022/01/01 06:26:59;;;;;;;12.82;9.75;;;7.30;93.80;;;;;;5072532;28;20103;-59
2022/01/01 06:29:25;;;;;;;11.73;8.98;;;7.40;93.80;;;;;;5087758;28;20078;-58
2022/01/01 06:31:50;;;;;;;14.77;10.80;;;7.40;93.90;;;;;;5088566;28;20448;-56
2022/01/01 06:34:16;;;;;;;13.73;10.93;;;7.40;93.80;;;;;;5072364;28;20115;-59
2022/01/01 06:36:42;;;;;;;12.15;10.13;;;7.50;93.90;;;;;;5078741;28;20033;-56
2022/01/01 06:39:08;;;;;;;13.50;9.52;;;7.40;93.90;;;;;;5079507;28;20029;-60
2022/01/01 06:41:33;;;;;;;13.55;10.27;;;7.50;94.10;;;;;;5072455;28;20056;-57
2022/01/01 06:43:59;;;;;;;11.80;9.57;;;7.50;94.20;;;;;;5084964;28;20111;-58
2022/01/01 06:46:24;;;;;;;13.63;10.65;;;7.50;94.30;;;;;;5073542;28;20104;-58
2022/01/01 06:48:50;;;;;;;13.30;10.00;;;7.50;94.40;;;;;;5079523;28;20032;-58
2022/01/01 06:51:16;;;;;;;11.55;8.45;;;7.60;94.80;;;;;;5072574;28;20032;-58
2022/01/01 06:53:42;;;;;;;12.50;9.23;;;7.60;94.60;;;;;;5072563;28;20024;-59
2022/01/01 06:56:09;;;;;;;12.82;10.13;;;7.60;94.60;;;;;;5075992;28;20036;-57
2022/01/01 06:58:36;;;;;;;14.38;10.73;;;7.60;94.70;;;;;;5082687;28;20499;-59
2022/01/01 07:01:02;;;;;;;14.27;10.60;;;7.70;94.70;;;;;;5072262;28;20029;-58
2022/01/01 07:03:28;;;;;;;14.45;11.25;;;7.70;94.80;;;;;;5078812;28;20422;-58
2022/01/01 07:05:54;;;;;;;12.13;9.35;;;7.70;94.80;;;;;;5092332;28;20054;-59
2022/01/01 07:08:20;;;;;;;14.52;10.75;;;7.70;94.70;;;;;;5092493;28;20069;-56
2022/01/01 07:10:46;;;;;;;12.55;9.25;;;7.70;94.80;;;;;;5092373;28;20020;-57
2022/01/01 07:13:13;;;;;;;12.07;8.95;;;7.80;94.80;;;;;;5092206;28;20016;-58
2022/01/01 07:15:39;;;;;;;13.98;9.80;;;7.80;94.90;;;;;;5092358;28;20020;-59
2022/01/01 07:18:05;;;;;;;16.95;12.30;;;7.80;94.90;;;;;;5092872;28;20034;-56
2022/01/01 07:20:30;;;;;;;15.05;11.82;;;7.80;95.00;;;;;;5093993;28;20020;-55
2022/01/01 07:22:56;;;;;;;11.13;9.05;;;7.90;95.00;;;;;;5094764;28;20453;-57
2022/01/01 07:25:22;;;;;;;14.13;10.63;;;7.90;94.90;;;;;;5095829;28;20020;-58
2022/01/01 07:27:47;;;;;;;14.13;11.25;;;7.90;94.80;;;;;;5082126;28;20024;-58
2022/01/01 07:30:13;;;;;;;14.05;9.73;;;7.90;94.80;;;;;;5095838;28;20032;-54
2022/01/01 07:32:46;;;;;;;14.25;10.23;;;7.90;94.70;;;;;;5085801;28;20082;-58
2022/01/01 07:35:14;;;;;;;12.90;9.18;;;7.90;94.70;;;;;;5078315;28;20051;-58
2022/01/01 07:37:40;;;;;;;14.10;10.65;;;7.90;94.70;;;;;;5078946;28;20040;-54
2022/01/01 07:40:08;;;;;;;14.13;10.88;;;7.90;94.70;;;;;;5075183;28;20022;-59
2022/01/01 07:42:34;;;;;;;14.63;10.75;;;8.00;94.70;;;;;;5075596;28;20017;-57
2022/01/01 07:45:00;;;;;;;14.25;10.00;;;8.00;94.70;;;;;;5076521;28;20040;-57
2022/01/01 07:47:26;;;;;;;13.25;10.63;;;8.00;94.70;;;;;;5075460;28;20028;-59
2022/01/01 07:49:52;;;;;;;14.05;11.13;;;8.00;94.70;;;;;;5075102;28;20025;-57
2022/01/01 07:52:18;;;;;;;10.93;8.70;;;8.00;94.70;;;;;;5075423;28;20047;-58
2022/01/01 07:54:43;;;;;;;14.77;10.38;;;7.90;94.70;;;;;;5075477;28;20035;-58
2022/01/01 07:57:09;;;;;;;13.27;10.82;;;8.00;94.70;;;;;;5087800;28;20025;-57
2022/01/01 07:59:35;;;;;;;12.13;9.27;;;8.00;94.70;;;;;;5074952;28;20016;-54
2022/01/01 08:02:01;;;;;;;12.60;10.10;;;8.00;94.60;;;;;;5080069;28;20529;-54
2022/01/01 08:04:26;;;;;;;14.25;10.77;;;8.00;94.60;;;;;;5088870;28;20031;-58
2022/01/01 08:06:52;;;;;;;13.68;10.48;;;8.00;94.60;;;;;;5087784;28;20016;-56
2022/01/01 08:09:17;;;;;;;11.63;9.00;;;8.00;94.70;;;;;;5078036;28;20086;-56
2022/01/01 08:11:43;;;;;;;10.50;8.57;;;8.00;94.60;;;;;;5084523;28;20047;-58
2022/01/01 08:14:09;;;;;;;11.57;8.25;;;8.00;94.60;;;;;;5076517;28;20020;-59
2022/01/01 08:16:53;;;;;;;11.75;8.20;;;8.00;94.60;;;;;;5077265;28;20059;-59
2022/01/01 08:19:19;;;;;;;10.77;8.65;;;8.00;94.60;;;;;;5084764;28;20024;-59
2022/01/01 08:21:45;;;;;;;13.70;10.23;;;8.00;94.50;;;;;;5087659;28;20035;-58
2022/01/01 08:24:10;;;;;;;13.18;9.45;;;8.10;94.50;;;;;;5087333;28;20407;-59
2022/01/01 08:26:36;;;;;;;11.82;8.50;;;8.10;94.40;;;;;;5080956;28;20043;-58
2022/01/01 08:29:01;;;;;;;11.25;9.13;;;8.10;94.40;;;;;;5079374;28;20025;-56
2022/01/01 08:31:27;;;;;;;10.60;8.50;;;8.10;94.40;;;;;;5075540;28;20031;-59
2022/01/01 08:33:53;;;;;;;12.35;8.35;;;8.10;94.40;;;;;;5084560;28;20020;-56
2022/01/01 08:36:18;;;;;;;12.52;9.02;;;8.10;94.30;;;;;;5075751;28;20025;-58
2022/01/01 08:38:44;;;;;;;11.27;8.65;;;8.10;94.20;;;;;;5073051;28;20107;-58
2022/01/01 08:41:10;;;;;;;9.35;8.15;;;8.10;94.20;;;;;;5083983;28;20021;-58
2022/01/01 08:43:36;;;;;;;10.07;7.93;;;8.10;94.20;;;;;;5087334;28;20016;-57
2022/01/01 08:46:02;;;;;;;11.68;9.10;;;8.10;94.20;;;;;;5078411;28;20456;-58
2022/01/01 08:48:27;;;;;;;9.95;7.75;;;8.20;94.20;;;;;;5080158;28;20094;-57
2022/01/01 08:50:53;;;;;;;10.65;8.25;;;8.20;94.10;;;;;;5074957;28;20027;-58
2022/01/01 08:53:18;;;;;;;11.35;8.35;;;8.20;94.10;;;;;;5076245;28;20025;-58
2022/01/01 08:55:44;;;;;;;9.15;7.68;;;8.20;94.00;;;;;;5079244;28;20092;-58
2022/01/01 08:58:10;;;;;;;9.38;7.68;;;8.20;93.90;;;;;;5102110;28;20747;-59
2022/01/01 09:00:36;;;;;;;9.15;7.57;;;8.20;93.90;;;;;;5089015;28;20082;-59
2022/01/01 09:03:01;;;;;;;11.57;7.45;;;8.20;93.80;;;;;;5079460;28;20028;-58
2022/01/01 09:05:27;;;;;;;10.30;7.30;;;8.20;93.60;;;;;;5087607;28;20039;-57
2022/01/01 09:07:53;;;;;;;7.53;6.30;;;8.20;93.50;;;;;;5079614;28;20024;-57
2022/01/01 09:10:20;;;;;;;7.32;5.47;;;8.10;93.30;;;;;;5094203;28;20405;-57
2022/01/01 09:12:46;;;;;;;6.90;5.65;;;8.10;93.20;;;;;;5093066;28;20024;-56
2022/01/01 09:15:12;;;;;;;6.82;5.70;;;8.00;93.10;;;;;;5090967;28;20150;-56
2022/01/01 09:17:38;;;;;;;7.68;5.78;;;8.00;93.10;;;;;;5081805;28;20039;-57
2022/01/01 09:20:04;;;;;;;7.05;5.78;;;7.90;92.90;;;;;;5086633;28;20460;-57
2022/01/01 09:22:30;;;;;;;7.60;6.07;;;7.80;92.80;;;;;;5078807;28;20032;-57
2022/01/01 09:24:55;;;;;;;7.60;6.35;;;7.70;92.80;;;;;;5089092;28;20404;-57
2022/01/01 09:27:21;;;;;;;9.13;6.85;;;7.70;92.80;;;;;;5089943;28;20162;-59
2022/01/01 09:29:47;;;;;;;7.10;5.88;;;7.60;92.90;;;;;;5078626;28;20099;-59
2022/01/01 09:32:12;;;;;;;7.07;5.45;;;7.60;93.10;;;;;;5077337;28;20028;-59
2022/01/01 09:34:38;;;;;;;5.68;4.80;;;7.50;93.20;;;;;;5087146;28;20085;-58
2022/01/01 09:37:04;;;;;;;6.85;4.88;;;7.50;93.30;;;;;;5086442;28;20043;-57
2022/01/01 09:39:30;;;;;;;5.03;4.20;;;7.50;93.30;;;;;;5086836;28;20031;-59
2022/01/01 09:41:56;;;;;;;6.78;4.85;;;7.50;93.40;;;;;;5079268;28;20124;-59
2022/01/01 09:44:22;;;;;;;5.90;4.00;;;7.50;93.40;;;;;;5093057;28;20043;-59
2022/01/01 09:46:50;;;;;;;4.03;3.50;;;7.50;93.50;;;;;;5093062;28;20469;-58
2022/01/01 09:49:19;;;;;;;5.47;4.05;;;7.50;93.50;;;;;;5078476;28;20047;-59
2022/01/01 09:51:46;;;;;;;3.97;3.50;;;7.50;93.30;;;;;;5073863;28;20028;-58
2022/01/01 09:54:12;;;;;;;3.75;3.05;;;7.40;93.20;;;;;;5073870;28;20025;-58
2022/01/01 09:56:38;;;;;;;4.75;3.40;;;7.40;93.10;;;;;;5091215;28;20059;-56
2022/01/01 09:59:04;;;;;;;3.90;3.42;;;7.40;93.20;;;;;;5093084;28;20016;-58
2022/01/01 10:01:30;;;;;;;3.92;3.42;;;7.40;93.10;;;;;;5091634;28;20387;-59
2022/01/01 10:03:59;;;;;;;4.93;3.60;;;7.30;93.20;;;;;;5086391;28;20046;-59
2022/01/01 10:06:30;;;;;;;3.80;3.40;;;7.30;93.10;;;;;;5076044;28;20037;-58
2022/01/01 10:09:02;;;;;;;4.97;4.10;;;7.30;93.20;;;;;;5073106;28;20427;-58
2022/01/01 10:11:28;;;;;;;4.72;4.03;;;7.30;93.50;;;;;;5075842;28;20108;-59
2022/01/01 10:13:54;;;;;;;4.68;3.70;;;7.30;93.60;;;;;;5093165;28;20107;-59
2022/01/01 10:16:20;;;;;;;4.90;3.90;;;7.40;93.70;;;;;;5092824;28;20020;-59
2022/01/01 10:18:48;;;;;;;4.88;3.90;;;7.30;93.60;;;;;;5092982;28;20495;-59
2022/01/01 10:21:21;;;;;;;5.07;4.00;;;7.40;93.70;;;;;;5092769;28;20025;-58
2022/01/01 10:23:51;;;;;;;5.07;3.90;;;7.40;93.60;;;;;;5091616;28;20048;-55
2022/01/01 10:29:28;;;;;;;4.85;3.67;;;7.50;93.50;;;;;;5077216;28;20023;-57
2022/01/01 10:32:07;;;;;;;3.88;3.47;;;7.50;93.60;;;;;;5091665;28;20031;-59
2022/01/01 10:34:35;;;;;;;3.08;2.78;;;7.50;93.60;;;;;;5093050;28;20047;-58
2022/01/01 10:37:05;;;;;;;4.30;3.10;;;7.50;93.60;;;;;;5076746;28;20123;-59
2022/01/01 10:39:31;;;;;;;3.75;3.03;;;7.50;93.60;;;;;;5077301;28;20036;-59
2022/01/01 10:41:59;;;;;;;3.28;2.97;;;7.50;93.50;;;;;;5072380;28;20024;-55
2022/01/01 10:44:39;;;;;;;3.47;3.00;;;7.50;93.60;;;;;;5072700;28;20032;-55
2022/01/01 10:47:21;;;;;;;3.70;2.97;;;7.60;93.50;;;;;;5087146;28;20034;-58
2022/01/01 10:52:29;;;;;;;3.03;2.72;;;7.60;93.60;;;;;;5072341;28;20028;-58
2022/01/01 10:55:00;;;;;;;3.88;3.22;;;7.60;93.50;;;;;;5088354;28;20111;-58
2022/01/01 10:57:35;;;;;;;4.20;3.38;;;7.60;93.60;;;;;;5084861;28;20032;-56
2022/01/01 11:00:04;;;;;;;4.30;3.17;;;7.70;93.50;;;;;;5079339;28;20423;-57
2022/01/01 11:02:33;;;;;;;3.40;3.10;;;7.70;93.60;;;;;;5084513;28;20020;-56
2022/01/01 11:04:59;;;;;;;3.33;2.90;;;7.70;93.40;;;;;;5076201;28;20032;-57
2022/01/01 11:07:27;;;;;;;3.08;2.72;;;7.70;93.40;;;;;;5075806;28;20028;-55
2022/01/01 11:09:55;;;;;;;3.00;2.70;;;7.70;93.30;;;;;;5076110;28;20028;-55
2022/01/01 11:12:22;;;;;;;3.10;2.72;;;7.70;93.20;;;;;;5085384;28;20024;-56
2022/01/01 11:14:48;;;;;;;3.42;3.05;;;7.70;93.10;;;;;;5078651;28;20392;-55
2022/01/01 11:17:15;;;;;;;3.42;3.13;;;7.70;93.10;;;;;;5074984;28;20033;-56
2022/01/01 11:19:42;;;;;;;3.17;2.90;;;7.70;93.30;;;;;;5079446;28;20069;-57
2022/01/01 11:22:09;;;;;;;3.28;2.97;;;7.70;93.30;;;;;;5095971;28;20024;-59
2022/01/01 11:24:38;;;;;;;4.90;3.50;;;7.70;93.30;;;;;;5095694;28;20048;-58
2022/01/01 11:27:05;;;;;;;4.38;3.53;;;7.80;93.30;;;;;;5096209;28;20464;-59
2022/01/01 11:29:34;;;;;;;4.47;3.47;;;7.80;93.40;;;;;;5078638;28;20035;-58
2022/01/01 11:32:00;;;;;;;4.75;3.63;;;7.80;93.40;;;;;;5077528;28;20485;-58
2022/01/01 11:34:31;;;;;;;4.10;3.30;;;7.80;93.40;;;;;;5075395;28;20381;-58
2022/01/01 11:36:57;;;;;;;5.32;3.50;;;7.90;93.30;;;;;;5087498;28;20027;-56
2022/01/01 11:39:25;;;;;;;4.90;4.00;;;7.90;93.30;;;;;;5093629;28;20024;-57
2022/01/01 11:41:52;;;;;;;4.65;4.05;;;7.90;93.20;;;;;;5095837;28;20027;-56
2022/01/01 11:44:35;;;;;;;5.57;4.50;;;7.90;93.30;;;;;;5095482;28;20020;-55
2022/01/01 11:47:06;;;;;;;5.40;4.30;;;7.90;93.10;;;;;;5085740;28;20532;-57
2022/01/01 11:49:32;;;;;;;;;;;7.90;93.20;;;;;;5075808;28;20119;-54
2022/01/01 11:52:00;;;;;;;7.07;5.63;;;7.80;93.10;;;;;;5075130;28;20430;-57
2022/01/01 11:54:38;;;;;;;8.23;5.90;;;7.90;93.40;;;;;;5091294;28;20131;-54
2022/01/01 11:57:19;;;;;;;8.85;6.47;;;7.90;93.30;;;;;;5084993;28;20035;-57
2022/01/01 11:59:55;;;;;;;9.27;7.40;;;7.90;93.40;;;;;;5079065;28;20104;-56
2022/01/01 12:02:23;;;;;;;10.75;7.80;;;7.90;93.40;;;;;;5077164;28;20028;-54
2022/01/01 12:05:07;;;;;;;11.52;8.68;;;7.90;93.40;;;;;;5090677;28;20024;-54
2022/01/01 12:07:42;;;;;;;9.02;7.25;;;7.90;93.40;;;;;;5095189;28;20157;-56
2022/01/01 12:10:08;;;;;;;10.40;8.75;;;7.90;93.40;;;;;;5091297;28;20028;-55
2022/01/01 12:12:42;;;;;;;12.57;9.05;;;7.90;93.40;;;;;;5095108;28;20020;-58
2022/01/01 12:15:22;;;;;;;10.52;9.38;;;7.90;93.30;;;;;;5095078;28;20035;-57
2022/01/01 12:17:59;;;;;;;10.27;9.23;;;7.90;93.30;;;;;;5093833;28;20120;-58
2022/01/01 12:20:29;;;;;;;10.38;8.73;;;7.90;93.30;;;;;;5081422;28;20021;-57
2022/01/01 12:22:56;;;;;;;8.45;7.15;;;7.90;93.20;;;;;;5081474;28;20044;-58
2022/01/01 12:25:27;;;;;;;8.25;7.20;;;7.90;93.20;;;;;;5094724;28;20032;-55
2022/01/01 12:28:00;;;;;;;7.72;6.65;;;7.90;93.10;;;;;;5089940;28;20491;-55
2022/01/01 12:30:32;;;;;;;7.57;6.65;;;7.80;93.20;;;;;;5092554;28;20544;-55
2022/01/01 12:32:57;;;;;;;7.82;6.38;;;7.80;93.10;;;;;;5077965;28;20043;-58
2022/01/01 12:35:51;;;;;;;7.35;5.45;;;7.80;93.20;;;;;;5082089;28;20029;-58
2022/01/01 12:38:20;;;;;;;6.80;5.82;;;7.80;93.10;;;;;;5079051;28;20127;-57
2022/01/01 12:41:03;;;;;;;6.35;5.45;;;7.80;93.10;;;;;;5094766;28;20156;-58
2022/01/01 12:43:32;;;;;;;7.78;6.10;;;7.80;93.10;;;;;;5094046;28;20024;-57
2022/01/01 12:46:00;;;;;;;6.60;5.60;;;7.80;93.20;;;;;;5083932;28;20043;-58
2022/01/01 12:48:28;;;;;;;5.88;5.22;;;7.80;93.20;;;;;;5094121;28;20060;-58
2022/01/01 12:51:03;;;;;;;6.53;5.80;;;7.80;93.20;;;;;;5089736;28;20452;-57
2022/01/01 12:53:30;;;;;;;5.28;4.70;;;7.70;93.10;;;;;;5075589;28;20089;-56
2022/01/01 12:56:01;;;;;;;5.32;4.53;;;7.70;93.10;;;;;;5074174;28;20033;-54